createdAt,value
2017-03-25T08:33:50.382Z,11.42
2017-03-25T08:34:47.968Z,11.52
2017-03-25T08:35:45.499Z,11.52
2017-03-25T08:36:43.161Z,11.32
2017-03-25T08:37:41.575Z,12.48
2017-03-25T08:38:39.080Z,10.64
2017-03-25T08:39:37.470Z,11.62
2017-03-25T08:40:35.103Z,11.02
2017-03-25T08:41:32.643Z,11.04
2017-03-25T08:42:30.318Z,9.90
2017-03-25T08:43:27.853Z,11.10
2017-03-25T08:44:25.460Z,10.40
2017-03-25T08:45:23.168Z,10.58
2017-03-25T08:46:20.708Z,10.06
2017-03-25T08:47:18.273Z,10.28
2017-03-25T08:48:15.895Z,9.70
2017-03-25T08:49:14.372Z,9.24
2017-03-25T08:50:11.997Z,10.48
2017-03-25T08:51:09.721Z,9.80
2017-03-25T08:52:07.336Z,10.04
2017-03-25T08:53:04.973Z,10.00
2017-03-25T08:54:02.526Z,9.48
2017-03-25T08:55:00.080Z,9.16
2017-03-25T08:55:57.633Z,9.50
2017-03-25T08:56:55.953Z,8.86
2017-03-25T08:57:53.555Z,10.02
2017-03-25T08:58:51.069Z,8.96
2017-03-25T08:59:48.654Z,8.96
2017-03-25T09:00:46.352Z,8.38
2017-03-25T09:01:44.041Z,10.30
2017-03-25T09:02:41.613Z,9.68
2017-03-25T09:03:39.178Z,9.34
2017-03-25T09:04:36.802Z,9.20
2017-03-25T09:05:34.357Z,9.44
2017-03-25T09:06:32.048Z,9.52
2017-03-25T09:07:29.574Z,8.82
2017-03-25T09:08:27.195Z,8.84
2017-03-25T09:09:24.849Z,8.12
2017-03-25T09:10:22.519Z,10.16
2017-03-25T09:11:20.076Z,9.50
2017-03-25T09:12:17.610Z,8.76
2017-03-25T09:13:15.243Z,9.52
2017-03-25T09:14:12.810Z,8.84
2017-03-25T09:15:10.356Z,9.40
2017-03-25T09:16:07.896Z,8.96
2017-03-25T09:17:05.441Z,8.64
2017-03-25T09:18:03.034Z,8.98
2017-03-25T09:19:00.648Z,9.62
2017-03-25T09:19:58.201Z,14.74
2017-03-25T09:20:55.750Z,26.26
2017-03-25T09:21:53.397Z,21.34
2017-03-25T09:22:51.823Z,19.28
2017-03-25T09:23:49.345Z,17.48
2017-03-25T09:24:46.889Z,16.76
2017-03-25T09:25:44.478Z,17.24
2017-03-25T09:26:42.086Z,16.38
2017-03-25T09:27:39.635Z,18.56
2017-03-25T09:28:37.291Z,16.60
2017-03-25T09:29:34.924Z,16.62
2017-03-25T09:30:32.477Z,17.48
2017-03-25T09:31:31.033Z,17.16
2017-03-25T09:32:28.684Z,17.08
2017-03-25T09:33:27.008Z,15.60
2017-03-25T09:34:24.629Z,16.12
2017-03-25T09:35:22.151Z,14.92
2017-03-25T09:36:19.684Z,15.10
2017-03-25T09:37:17.261Z,13.52
2017-03-25T09:38:14.820Z,14.44
2017-03-25T09:39:12.349Z,14.12
2017-03-25T09:40:10.716Z,13.56
2017-03-25T09:41:08.265Z,13.92
2017-03-25T14:15:51.223Z,6.24
2017-03-25T14:16:48.751Z,6.04
2017-03-25T14:17:47.145Z,6.22
2017-03-25T14:18:44.811Z,5.38
2017-03-25T14:19:42.409Z,6.22
2017-03-25T14:20:39.981Z,5.84
2017-03-25T14:21:37.536Z,6.16
2017-03-25T14:22:35.053Z,5.86
2017-03-25T14:23:32.572Z,5.54
2017-03-25T14:24:30.139Z,5.48
2017-03-25T14:25:27.651Z,5.76
2017-03-25T14:26:25.983Z,5.34
2017-03-25T14:27:23.743Z,5.62
2017-03-25T14:28:21.309Z,5.82
2017-03-25T14:29:18.820Z,6.30
2017-03-25T14:30:16.381Z,5.64
2017-03-25T14:31:13.904Z,6.08
2017-03-25T14:32:11.530Z,5.70
2017-03-25T14:33:09.078Z,5.40
2017-03-25T14:34:06.690Z,5.62
2017-03-25T14:35:04.342Z,6.20
2017-03-25T14:36:02.692Z,6.22
2017-03-25T14:37:00.245Z,5.86
2017-03-25T14:37:57.909Z,5.50
2017-03-25T14:38:56.308Z,5.88
2017-03-25T14:39:53.934Z,6.30
2017-03-25T14:40:51.503Z,5.16
2017-03-25T14:41:49.182Z,6.28
2017-03-25T14:42:46.802Z,5.34
2017-03-25T14:43:44.421Z,5.94
2017-03-25T14:44:42.006Z,5.10
2017-03-25T14:45:39.553Z,6.22
2017-03-25T14:46:37.119Z,6.20
2017-03-25T14:47:35.880Z,5.22
2017-03-25T14:48:34.607Z,5.60
2017-03-25T14:49:33.004Z,6.42
2017-03-25T14:50:30.573Z,5.70
2017-03-25T14:51:28.100Z,5.42
2017-03-25T14:52:25.657Z,6.66
2017-03-25T14:53:23.189Z,6.72
2017-03-25T14:54:21.588Z,5.80
2017-03-25T14:55:19.141Z,6.10
2017-03-25T14:56:16.821Z,5.74
2017-03-25T14:57:14.377Z,5.46
2017-03-25T14:58:11.968Z,5.74
2017-03-25T14:59:09.504Z,4.90
2017-03-25T15:00:07.829Z,5.54
2017-03-25T15:01:05.428Z,5.90
2017-03-25T15:02:03.014Z,5.62
2017-03-25T15:03:00.868Z,6.44
2017-03-25T15:03:58.448Z,5.34
2017-03-25T15:04:56.009Z,5.22
2017-03-25T15:05:53.614Z,5.68
2017-03-25T15:06:51.197Z,5.16
2017-03-25T15:07:48.844Z,5.98
2017-03-25T15:08:46.397Z,4.46
2017-03-25T15:09:43.950Z,5.22
2017-03-25T15:10:41.553Z,5.16
2017-03-25T15:11:39.097Z,5.28
2017-03-25T15:12:36.665Z,4.64
2017-03-25T15:13:34.434Z,4.52
2017-03-25T15:14:32.029Z,5.42
2017-03-25T15:15:29.641Z,4.88
2017-03-25T15:16:27.258Z,4.92
2017-03-25T15:17:25.345Z,4.74
2017-03-25T15:18:23.020Z,4.70
2017-03-25T15:19:20.609Z,4.80
2017-03-25T15:20:18.211Z,5.32
2017-03-25T15:21:15.756Z,4.88
2017-03-25T15:22:13.356Z,4.44
2017-03-25T15:23:11.429Z,5.12
2017-03-25T15:24:09.182Z,4.38
2017-03-25T15:25:06.865Z,4.72
2017-03-25T15:26:04.432Z,4.52
2017-03-25T15:27:02.316Z,5.38
2017-03-25T15:27:59.862Z,4.46
2017-03-25T21:03:21.213Z,3.44
2017-03-25T21:04:18.877Z,4.00
2017-03-25T21:05:16.457Z,4.18
2017-03-25T21:06:14.113Z,3.60
2017-03-25T21:07:11.698Z,3.46
2017-03-25T21:08:09.350Z,4.10
2017-03-25T21:09:07.032Z,4.14
2017-03-25T21:10:04.582Z,4.50
2017-03-25T21:11:02.885Z,4.34
2017-03-25T21:12:03.963Z,5.02
2017-03-25T21:13:01.665Z,4.40
2017-03-25T21:13:59.302Z,3.86
2017-03-25T21:14:56.942Z,4.34
2017-03-25T21:15:54.563Z,3.82
2017-03-25T21:16:52.385Z,4.28
2017-03-25T21:17:50.787Z,3.98
2017-03-25T21:18:49.253Z,3.52
2017-03-25T21:19:48.912Z,4.74
2017-03-25T21:20:46.456Z,4.44
2017-03-25T21:21:44.081Z,4.56
2017-03-25T21:22:41.647Z,4.54
2017-03-25T21:23:39.234Z,4.26
2017-03-25T21:24:36.909Z,4.74
2017-03-25T21:25:34.514Z,4.86
2017-03-25T21:26:33.368Z,5.16
2017-03-25T21:27:31.004Z,5.48
2017-03-25T21:28:28.752Z,5.10
2017-03-25T21:29:26.289Z,5.26
2017-03-25T21:30:24.508Z,5.80
2017-03-25T21:31:22.115Z,4.96
2017-03-25T21:32:19.666Z,4.76
2017-03-25T21:33:17.969Z,4.62
2017-03-25T21:34:15.516Z,4.56
2017-03-25T21:35:13.124Z,4.14
2017-03-25T21:36:10.826Z,4.30
2017-03-25T21:37:08.363Z,4.70
2017-03-25T21:38:06.326Z,4.90
2017-03-25T21:39:04.001Z,4.62
2017-03-25T21:40:02.552Z,4.56
2017-03-25T21:41:01.023Z,5.32
2017-03-25T21:41:58.740Z,4.96
2017-03-25T21:42:57.088Z,4.64
2017-03-25T21:43:54.672Z,4.82
2017-03-25T21:44:52.193Z,4.96
2017-03-25T21:45:49.894Z,4.64
2017-03-25T21:46:47.505Z,4.92
2017-03-25T21:47:45.145Z,4.40
2017-03-25T21:48:43.548Z,5.08
2017-03-25T21:49:41.272Z,4.62
2017-03-25T21:50:39.743Z,4.36
